This site, now in its 15th season, is a labour of love and fun from one of Ottawa's most avid time trialists and number crunchers. It adheres to and is permitted by the laws of Canada, promotes the objectives of every bicycle club whose results are shown, and is donated free of charge by myself for your enjoyment and usage. If you would like results from series you ride in to be shown here, give me (celia@drmath.ca) a shout!


Index Page
ATT OTT WTT AATT CFCTT VVVTT
Help resultformat:
Case-sensitive

OBC Open TT Series - 2008-Aug-14 - 15km (Rockliffe Pkwy) (EvtFactor = 0.9659)

Weather (18:00): Partly Cloudy. Temp.: 24C, Humidity: 48%, Dew Point: 12C, Wind: NW 15km/h, Pressure: 101.1kPa, Vis: 24km, Humidex: 26.
Weather (19:00): Mainly Sunny. Temp.: 23C, Humidity: 46%, Dew Point: 11C, Wind: NW 9km/h, Pressure: 101.1kPa, Vis: 24km, Humidex: *.
Weather (20:00): Mainly Sunny. Temp.: 21C, Humidity: 59%, Dew Point: 12C, Wind: N 9km/h, Pressure: 101.2kPa, Vis: 24km, Humidex: *.

Send photos with description (when/where/what) of yourself on or off of bike to celia@drmath.ca

These results were first posted on the OBC site circa 11:00 on 2008-Aug-15 and are available here for your added pleasure and analysis.

There were some fantastic performances this evening, with three riders improving upon the previous database category bests! You may click here to see the top fifty VAM, VBF and VEM category performances which are currently led by Warren MacDonald, Sue Schlatter and Hermann Kerckhoff. Sue could have been even faster had she not taken the time to chat at the turnaround while waiting for a few cars to pass! Hermann, on the other hand, when asked by Geoffrey if he'd do sub-22 next time, said that he didn't want to be quoted on his response. Warren is the youngster of the three, and he will almost certainly continue to improve. Note that Sue is now only 24 seconds off of Meshy Holt's phenomenal 20:06 database record which was set on 2002-Jul-18! Meshy Holt was a professional cyclist who represented New Zealand in the Olympics and the Commonwealth games. The phenomenal thing about Sue is that this year she is 19 years older than Meshy was in 2002. If we look at the age handicapping method which we currently use in this club, Sue is now number one amongst the women. There were improvements for many of the rest of us as well. Nineteen out of sixty-eight equalled or bettered their previous database best, while 36 out of 66 met or improved upon their previous 2008 OTT best. Good riding!

 
 

BESTS?
 
1 MacDonald, Warren  OBC/EMD 18:44 48.043 1/70 VAM 1/11 1.0324
2 Nash, Michael  OBC 18:54 47.619 2/70 VBM 1/16 0.9609
3 Amos, Ron  OBC/RWR 19:23 46.432 3/70 VBM 2/16 1.0052
4 Datars, Paul  OBC/RWR 19:51 45.340 4/70 VCM 1/14 0.9432
5 van den Ham, Douglas  OBC 20:05 44.813 5/70 SEM 1/2 1.0976
6 Hamilton, Peter OBC 20:06 44.776 6/70 VBM 3/16 1.0301
7 Martin, David OBC 20:14 44.481 7/70 VAM 2/11 1.0426
8 Parniak, Robert  OBC 20:24 44.118 8/70 VAM 3/11 1.0677
9 Martel, Brad RWR 20:30 43.902 9/70 VBM 4/16 0.9782
Y Schlatter, Sue  EMD 20:30 43.902 9/70 VBF 1/4 1.0147
11 Sudac, Rick  OBC/RWR 20:33 43.796 11/70 VCM 2/14 0.9592
12 Christie, Greg  OBC/RWR 20:43 43.443 12/70 VCM 3/14 1.0072
13 Zappe, Erich RWR 20:47 43.304 13/70 VBM 5/16 0.9761
14 Zuliani, Greg RWR 20:50 43.200 14/70 SEM 2/2 1.1431
15 Henschel, Peter OBC 21:05 42.688 15/70 VBM 6/16 1.0119
Wright, Sean CYC 21:05 42.688 15/70 VBM 6/16 0.9695
17 Hanrahan, Mason EUR 21:19 42.220 17/70 JUM 1/1 0.8700
Lefebvre, Jean-Pierre OBC 21:19 42.220 17/70 VAM 4/11 0.9860
19 Cameron, Allen  OBC/RWR 21:22 42.122 19/70 VCM 4/14 1.0404
20 Romkey, Gary OBC/RWR 21:29 41.893 20/70 VDM 1/7 0.9954
21 Ainsley, Gino OBC 21:33 41.763 21/70 VBM 8/16 0.9907
22 Lapointe, Marc EMD 21:39 41.570 22/70 VAM 5/11 1.0469
23 Gerrard, David  OBC 21:41 41.507 23/70 VBM 9/16 0.9885
Y 24 Domina, Sara OBC 21:44 41.411 24/70 SEF 1/2 1.0000
25 Diaz, Rodrigo  OBC 21:52 41.159 25/70 VAM 6/11 1.0000
26 Hinz, Richard OBC 22:04 40.785 26/70 VCM 5/14 1.0719
27 Spooner, Tricia  EMD 22:05 40.755 27/70 VAF 1/3 0.9753
28 Bernard, Christopher APK 22:14 40.480 28/70 CAM 1/1 1.0023
29 Posthuma, Hans  OBC 22:24 40.179 29/70 VCM 6/14 0.9197
30 Revesz, Erika  OBC 22:31 39.970 30/70 VCF 1/4 0.9867
Thompson, William OBC 22:31 39.970 30/70 VBM 10/16 0.9455
32 Grace, Darrin  OBC/EUR 22:34 39.882 32/70 VBM 11/16 1.0045
33 Farish, Neil  OBC/RWR 22:39 39.735 33/70 VCM 7/14 0.9059
34 Bray, Fred OBC 22:46 39.531 34/70 VBM 12/16  
35 Boulanger, Gaetan  OBC 22:49 39.445 35/70 VDM 2/7 1.0536
Y 36 Kerckhoff, Hermann  RWR 22:51 39.387 36/70 VEM 1/2 1.0198
37 Gauthier, Michelle EUR 22:55 39.273 37/70 VAF 2/3 1.0242
38 Burdett, Avery  OBC 22:57 39.216 38/70 VDM 3/7 0.9979
39 Moerman, Bram  OBC 23:00 39.130 39/70 VDM 4/7 0.9635
Thomas, Trevor CYC 23:00 39.130 39/70 VAM 7/11 0.9155
41 Dorego, Jean-Louis OBC 23:04 39.017 41/70 VCM 8/14 1.0000
42 Desjardins, Marcel OBC 23:14 38.737 42/70 VDM 5/7 1.0592
43 Bernard, Audrey APK 23:21 38.544 43/70 CAF 1/1 0.9893
44 Coney, Sarah OBC 23:23 38.489 44/70 SEF 2/2 0.9069
45 Armstrong, Brian OBC 23:32 38.244 45/70 VBM 13/16 0.9958
46 Coney, Michael OBC 23:44 37.921 46/70 VDM 6/7 1.0063
47 Burge, Larry  OBC 23:49 37.789 47/70 VBM 14/16 1.0254
Paul, Richard  OBC 23:49 37.789 47/70 VCM 9/14 0.9464
49 Langevin, Roger  OBC 23:54 37.657 49/70 VAM 8/11 1.0190
50 Austen, Ian  OBC 23:58 37.552 50/70 VCM 10/14 1.0000
51 Humphreys, Les  OBC/ABC 24:06 37.344 51/70 VDM 7/7 1.0399
52 Momtahan, Parham  OBC 24:09 37.267 52/70 VCM 11/14  
53 McInnis, Celia  OBC/ABC 24:11 37.216 53/70 VCF 2/4 1.0591
54 Freed, Adam --- 24:17 37.062 54/70 VAM 9/11 0.9734
Imbrogno, Giorgio  OBC 24:17 37.062 54/70 VCM 12/14 0.9654
56 Coney, Ingrid  OBC 24:27 36.810 56/70 VCF 3/4 1.0020
57 Fasken, Lee OBC 24:29 36.760 57/70 VCM 13/14  
58 Ingham, Alison  OBC 24:38 36.536 58/70 VBF 2/4 1.1534
59 Konantz, Patricia  OBC 25:11 35.738 59/70 VCF 4/4 0.9628
60 McLaughlin, Brian OBC 25:13 35.691 60/70 VBM 15/16 1.0179
61 Levi, Cheryl OBC 25:26 35.387 61/70 VBF 3/4 0.9403
62 Ajersch, Mary  OBC 25:48 34.884 62/70 VDF 1/1 1.0000
63 Rees, Stephanie  OBC 25:54 34.749 63/70 VAF 3/3 1.0571
64 Liechti, Hans-Peter OBC 26:20 34.177 64/70 VBM 16/16 1.0738
65 Hart, Kate OBC/RWR 26:45 33.645 65/70 VBF 4/4 0.9704
66 St. John, Ronald OBC 27:19 32.947 66/70 VEM 2/2 0.9964
67 Ramcharan, John OBC 28:28 31.616 67/70 VCM 14/14 1.0537
68 Wright, Geoffrey  OBC 31:48 28.302 68/70 VFM 1/1 0.7769
69 LeBrun, Robert OBC 34:21 26.201 69/70 VAM 10/11 1.0868
70 Munden, David EMD DNF   70/70 VAM 11/11  
 
Average Speed of all of the above 69 finishes (1035km in 26:29:57):39.058
>>>Average of the Average Speeds for these 69 finishes39.513<<<
 

The number of data records shown above is 70
The server processing of your query took: 2 wallclock secs ( 0.14 usr + 0.00 sys = 0.14 CPU)

Thanks to our Helpers: Sean Gates, Gunter Hauschildt, Dianne Marleau, Alex McKnight, Jacques Morvan.

     


Mar 21 (Good Friday)
Apr 24
May 1 May 6 (10km) May 8 May 13 (10km) May 15 May 20 May 20 (10km) May 22 May 27 May 27 (10km) May 29
Jun 1 (40km) Jun 3 Jun 3 Jun 5 Jun 10 Jun 10 Jun 12 Jun 17 Jun 17 Jun 19 Jun 24 Jun 24 Jun 26
Jul 1 (cancelled - ) Jul 2 Jul 3 Jul 6 (40km) Jul 8 Jul 8 Jul 10 Jul 15 Jul 15 Jul 17 Jul 22 Jul 22 Jul 24 Jul 27 (40km) Jul 29 Jul 29 Jul 31
Aug 5 Aug 5 Aug 7 Aug 10 (40km) Aug 12 Aug 12
  Aug 14  
Aug 19 Aug 19 Aug 21 Aug 26 Aug 26 (Invitational) Aug 28
Sep 2 Sep 4 Sep 7 (40km) Sep 9 Sep 11 Sep 16 Sep 21 (40km) Sep 23 Sep 30

OTT Rankings
Best       Best by category
WTT Rankings for OBC Members
5 Best Speeds     5 Best Speeds by category
OBC Member Best Three 15km Rankings
Overall     by category     age-Hcap Female   age-Hcap Male
OBC BAR Ranking
Overall     by category     Rider "Consistency-Graph"
ABC BAR Ranking
Overall     by category     Rider "Consistency-Graph"
Other years
TT Calculator All TT People All TT events
ABC Home VVV Home
CKAP GOLD MEDAL
Other Links

Note: OTT data from 2003 through 2006-Apr-14 and 2007-Apr-06-? and WTT from 2008-? is taken from the official OBC site.

Please send your comments and suggestions to: Celia McInnis
Copyright © 1998-2011 Celia McInnis. All rights reserved. Links are welcomed.